Time;durP1;ratioP1;P1;durP2;ratioP2;P2;SDS_P1;SDS_P2;PMS_P1;PMS_P2;Temp;Humidity;BMP_temperature;BMP_pressure;BME280_temperature;BME280_humidity;BME280_pressure;Samples;Min_cycle;Max_cycle;Signal;HPM_P1;HPM_P2
2022/03/01 00:00:10;;;;;;;8.67;6.00;;;;;;;1.36;62.22;103151.09;5022344;28;20239;-56
2022/03/01 00:02:36;;;;;;;7.63;6.63;;;;;;;1.31;61.72;103145.59;5016367;28;20285;-56
2022/03/01 00:05:03;;;;;;;10.30;6.90;;;;;;;1.28;62.20;103132.41;5015914;28;20255;-55
2022/03/01 00:07:29;;;;;;;11.60;7.17;;;;;;;1.30;62.27;103148.97;4996772;28;20248;-54
2022/03/01 00:09:56;;;;;;;8.90;7.03;;;;;;;1.37;62.52;103147.72;4991908;28;20261;-57
2022/03/01 00:12:24;;;;;;;7.77;6.97;;;;;;;1.16;59.93;103134.97;4991083;28;20884;-57
2022/03/01 00:14:50;;;;;;;11.43;6.40;;;;;;;1.37;63.69;103140.88;4991215;28;20288;-53
2022/03/01 00:17:17;;;;;;;9.50;6.83;;;;;;;1.13;61.15;103136.44;4988613;28;20227;-53
2022/03/01 00:19:43;;;;;;;10.93;7.13;;;;;;;1.09;60.04;103129.19;5003608;28;20609;-54
2022/03/01 00:22:09;;;;;;;9.43;7.43;;;;;;;0.95;60.38;103136.84;4995094;28;20358;-54
2022/03/01 00:24:36;;;;;;;7.13;6.23;;;;;;;0.88;60.92;103144.91;5010578;28;20257;-55
2022/03/01 00:27:02;;;;;;;13.63;7.77;;;;;;;0.88;62.18;103125.91;5015037;28;20327;-56
2022/03/01 00:29:29;;;;;;;11.13;8.43;;;;;;;0.98;61.15;103130.06;5017177;28;20255;-54
2022/03/01 00:31:56;;;;;;;9.33;7.77;;;;;;;0.91;61.79;103132.22;5015733;28;20298;-55
2022/03/01 00:34:22;;;;;;;10.87;7.40;;;;;;;0.73;61.27;103122.13;5017782;28;20274;-56
2022/03/01 00:36:49;;;;;;;8.37;6.40;;;;;;;0.67;61.24;103122.56;5018526;28;20259;-55
2022/03/01 00:39:15;;;;;;;12.90;8.23;;;;;;;0.76;61.40;103120.66;5021851;28;20267;-54
2022/03/01 00:41:41;;;;;;;9.77;7.23;;;;;;;0.66;62.75;103118.16;5004794;28;20235;-54
2022/03/01 00:44:08;;;;;;;10.10;7.37;;;;;;;0.60;62.55;103110.84;5015273;28;20263;-51
2022/03/01 00:46:35;;;;;;;13.40;7.70;;;;;;;0.44;62.49;103118.19;5003682;28;20236;-53
2022/03/01 00:49:02;;;;;;;10.13;7.47;;;;;;;0.56;62.07;103102.72;5000891;28;20237;-54
2022/03/01 00:51:28;;;;;;;13.10;7.37;;;;;;;0.45;62.57;103107.94;5013077;28;20257;-54
2022/03/01 00:53:55;;;;;;;15.23;8.43;;;;;;;0.71;63.24;103120.34;5002256;28;20244;-54
2022/03/01 00:56:22;;;;;;;10.13;7.13;;;;;;;0.71;64.03;103119.44;5008179;28;20225;-54
2022/03/01 00:58:48;;;;;;;9.60;7.20;;;;;;;0.65;61.67;103108.59;5003704;28;20236;-55
2022/03/01 01:01:14;;;;;;;10.70;7.63;;;;;;;0.67;62.83;103107.94;5000610;28;20729;-55
2022/03/01 01:03:42;;;;;;;8.47;7.67;;;;;;;0.58;62.97;103121.84;5013026;28;20293;-54
2022/03/01 01:06:08;;;;;;;9.37;6.80;;;;;;;0.64;62.58;103115.47;5022450;28;20260;-54
2022/03/01 01:08:35;;;;;;;9.93;7.70;;;;;;;0.72;61.46;103116.06;5004472;28;20344;-55
2022/03/01 01:11:01;;;;;;;11.43;7.40;;;;;;;0.58;61.65;103107.22;5001744;28;20239;-56
2022/03/01 01:13:29;;;;;;;11.17;7.10;;;;;;;0.45;62.13;103114.81;4992091;28;20237;-56
2022/03/01 01:15:55;;;;;;;10.30;6.27;;;;;;;0.53;62.09;103112.81;5011438;28;21030;-54
2022/03/01 01:18:22;;;;;;;10.70;8.00;;;;;;;0.41;62.45;103110.19;4994808;28;21181;-54
2022/03/01 01:20:49;;;;;;;10.17;7.43;;;;;;;0.49;64.80;103114.25;5000391;28;20999;-55
2022/03/01 01:23:16;;;;;;;8.83;6.60;;;;;;;0.36;61.73;103114.09;4995105;28;20264;-55
2022/03/01 01:25:42;;;;;;;13.80;8.10;;;;;;;0.34;64.63;103111.38;5008250;28;20245;-56
2022/03/01 01:28:08;;;;;;;11.23;7.40;;;;;;;0.56;65.97;103111.41;4996646;28;20324;-55
2022/03/01 01:30:36;;;;;;;12.63;7.20;;;;;;;0.43;63.09;103104.34;5016769;28;20265;-54
2022/03/01 01:33:02;;;;;;;10.23;7.97;;;;;;;0.37;63.28;103106.44;5001734;28;20256;-57
2022/03/01 01:35:32;;;;;;;10.27;6.80;;;;;;;0.52;63.74;103095.50;5020619;28;20289;-55
2022/03/01 01:38:00;;;;;;;9.63;7.17;;;;;;;0.28;62.31;103089.31;5010063;28;20715;-55
2022/03/01 01:40:29;;;;;;;10.40;6.73;;;;;;;0.18;63.43;103103.22;4993731;28;20242;-56
2022/03/01 01:42:56;;;;;;;12.67;7.20;;;;;;;0.58;68.85;103096.88;5006390;28;20298;-54
2022/03/01 01:45:23;;;;;;;11.17;7.20;;;;;;;0.60;65.78;103095.34;5003336;28;20237;-55
2022/03/01 01:47:51;;;;;;;7.20;6.57;;;;;;;0.68;65.04;103098.50;5005939;28;20717;-56
2022/03/01 01:50:18;;;;;;;9.03;7.33;;;;;;;0.47;64.59;103098.63;5009695;28;20736;-56
2022/03/01 01:52:45;;;;;;;8.07;7.17;;;;;;;0.45;64.53;103092.44;5010355;28;20256;-56
2022/03/01 01:55:14;;;;;;;13.67;8.07;;;;;;;0.37;63.41;103101.28;5010487;28;20239;-56
2022/03/01 01:57:40;;;;;;;11.13;7.50;;;;;;;0.38;64.77;103095.31;5007862;28;20262;-55
2022/03/01 02:00:08;;;;;;;10.00;6.90;;;;;;;0.36;64.18;103094.31;5016051;28;20257;-55
2022/03/01 02:02:34;;;;;;;11.97;7.60;;;;;;;0.31;63.55;103105.06;5014675;28;20658;-52
2022/03/01 02:05:02;;;;;;;14.13;6.93;;;;;;;0.33;65.90;103098.34;5010018;28;20754;-53
2022/03/01 02:07:28;;;;;;;12.37;7.40;;;;;;;0.50;65.21;103091.94;4999562;28;20417;-54
2022/03/01 02:09:55;;;;;;;12.70;7.97;;;;;;;0.75;69.06;103090.44;5023161;28;20232;-56
2022/03/01 02:12:22;;;;;;;12.43;7.73;;;;;;;0.82;65.58;103087.53;5002927;28;20290;-56
2022/03/01 02:14:49;;;;;;;9.13;7.17;;;;;;;0.88;65.76;103082.84;5005787;28;20746;-55
2022/03/01 02:17:16;;;;;;;7.80;6.93;;;;;;;0.42;63.31;103089.66;5008584;28;20231;-54
2022/03/01 02:19:47;;;;;;;9.87;7.63;;;;;;;0.70;68.47;103078.81;5010548;28;20278;-53
2022/03/01 02:22:15;;;;;;;11.67;7.93;;;;;;;1.01;68.24;103087.25;4995693;28;20258;-56
2022/03/01 02:24:41;;;;;;;10.27;8.43;;;;;;;0.75;63.59;103085.28;5018059;28;20274;-53
2022/03/01 02:27:08;;;;;;;15.90;8.20;;;;;;;0.51;63.51;103083.38;5019835;28;20237;-55
2022/03/01 02:29:34;;;;;;;11.23;7.43;;;;;;;0.59;63.57;103071.94;5009065;28;20272;-56
2022/03/01 02:32:03;;;;;;;13.63;7.40;;;;;;;0.43;64.36;103070.75;5021698;28;20256;-55
2022/03/01 02:34:29;;;;;;;8.43;7.07;;;;;;;0.20;64.65;103075.81;5013569;28;20278;-54
2022/03/01 02:36:55;;;;;;;12.30;7.43;;;;;;;0.14;64.45;103071.09;5020581;28;20232;-55
2022/03/01 02:39:23;;;;;;;9.23;6.83;;;;;;;0.26;64.33;103068.53;5009858;28;20239;-53
2022/03/01 02:41:50;;;;;;;9.83;7.40;;;;;;;0.14;64.88;103065.00;5019884;28;20247;-55
2022/03/01 02:44:17;;;;;;;15.17;8.27;;;;;;;0.21;65.24;103072.44;5012556;28;20265;-55
2022/03/01 02:46:43;;;;;;;10.83;7.70;;;;;;;0.12;64.55;103067.47;5015009;28;20231;-55
2022/03/01 02:49:10;;;;;;;8.73;6.50;;;;;;;0.16;66.99;103064.34;5008973;28;20289;-54
2022/03/01 02:51:37;;;;;;;15.10;7.60;;;;;;;0.24;67.34;103068.41;5002523;28;20238;-55
2022/03/01 02:54:04;;;;;;;11.10;7.77;;;;;;;0.09;64.03;103074.97;5020072;28;20289;-53
2022/03/01 02:56:31;;;;;;;14.27;7.03;;;;;;;0.07;65.23;103063.63;5024559;28;20237;-56
2022/03/01 02:58:59;;;;;;;8.97;7.40;;;;;;;-0.15;64.79;103071.31;5022439;28;20259;-52
2022/03/01 03:01:25;;;;;;;10.00;8.23;;;;;;;-0.11;67.17;103068.22;5008771;28;20228;-54
2022/03/01 03:03:52;;;;;;;11.27;7.70;;;;;;;0.06;66.15;103072.13;5014017;28;20314;-55
2022/03/01 03:06:18;;;;;;;12.07;7.80;;;;;;;-0.02;65.92;103074.13;5021840;28;20329;-54
2022/03/01 03:08:45;;;;;;;11.97;8.40;;;;;;;-0.02;65.98;103071.53;5016072;28;20324;-53
2022/03/01 03:11:12;;;;;;;12.67;7.77;;;;;;;0.12;68.58;103066.56;5009301;28;20298;-54
2022/03/01 03:13:41;;;;;;;10.40;8.20;;;;;;;0.21;67.61;103073.38;5007541;28;20243;-54
2022/03/01 03:16:08;;;;;;;13.00;7.90;;;;;;;0.11;67.63;103064.78;5022123;28;20304;-56
2022/03/01 03:18:35;;;;;;;9.47;7.60;;;;;;;0.45;68.20;103076.94;5012718;28;20658;-54
2022/03/01 03:21:01;;;;;;;9.17;7.87;;;;;;;0.28;66.75;103071.22;5018468;28;20233;-56
2022/03/01 03:23:27;;;;;;;9.93;7.60;;;;;;;0.10;65.31;103066.44;5020979;28;20230;-53
2022/03/01 03:25:54;;;;;;;11.53;7.67;;;;;;;0.18;70.08;103067.94;5003978;28;20287;-54
2022/03/01 03:28:21;;;;;;;10.43;7.97;;;;;;;-0.16;66.72;103066.06;5001411;28;20710;-55
2022/03/01 03:30:48;;;;;;;11.27;7.57;;;;;;;0.14;68.58;103065.91;5009556;28;20298;-53
2022/03/01 03:33:15;;;;;;;10.30;7.83;;;;;;;0.06;68.31;103073.81;5008773;28;20249;-52
2022/03/01 03:35:41;;;;;;;11.87;7.23;;;;;;;-0.08;65.56;103065.88;5022173;28;20252;-54
2022/03/01 03:38:08;;;;;;;13.50;7.57;;;;;;;-0.14;65.41;103062.81;5008957;28;20243;-56
2022/03/01 03:40:34;;;;;;;11.67;7.10;;;;;;;-0.13;67.22;103064.63;5019887;28;20239;-52
2022/03/01 03:43:01;;;;;;;12.47;7.93;;;;;;;-0.09;65.09;103058.91;5012324;28;20294;-52
2022/03/01 03:45:28;;;;;;;9.77;7.73;;;;;;;-0.26;64.93;103061.84;5009496;28;20307;-55
2022/03/01 03:47:55;;;;;;;12.27;8.90;;;;;;;-0.33;67.53;103063.00;5015783;28;20259;-53
2022/03/01 03:50:23;;;;;;;12.83;8.30;;;;;;;-0.06;66.57;103056.59;5014637;28;20711;-55
2022/03/01 03:52:49;;;;;;;9.67;6.57;;;;;;;0.08;69.17;103061.94;5023442;28;20756;-55
2022/03/01 03:55:16;;;;;;;9.50;7.37;;;;;;;-0.19;65.39;103063.22;5009833;28;20232;-55
2022/03/01 03:57:42;;;;;;;10.67;8.07;;;;;;;-0.19;66.17;103058.06;5017732;28;20239;-55
2022/03/01 04:00:15;;;;;;;9.37;7.47;;;;;;;-0.01;71.54;103059.53;5003271;28;20241;-55
2022/03/01 04:02:41;;;;;;;10.23;7.20;;;;;;;0.06;67.95;103063.50;5023305;28;20244;-54
2022/03/01 04:05:09;;;;;;;10.13;7.47;;;;;;;0.06;68.90;103063.50;5012911;28;21086;-55
2022/03/01 04:07:36;;;;;;;9.30;7.63;;;;;;;-0.01;67.86;103052.66;5023832;28;20236;-55
2022/03/01 04:10:03;;;;;;;14.93;7.57;;;;;;;-0.03;68.03;103053.34;5005421;28;20725;-56
2022/03/01 04:12:29;;;;;;;11.87;8.00;;;;;;;-0.27;66.56;103057.47;5023074;28;20254;-55
2022/03/01 04:14:55;;;;;;;8.53;7.57;;;;;;;-0.38;67.66;103058.28;5014115;28;20233;-55
2022/03/01 04:17:22;;;;;;;12.47;7.53;;;;;;;-0.42;71.09;103049.38;5013492;28;20239;-55
2022/03/01 04:19:48;;;;;;;10.70;7.57;;;;;;;-0.05;71.08;103044.56;5003389;28;20239;-53
2022/03/01 04:22:15;;;;;;;12.50;8.20;;;;;;;0.21;69.73;103047.53;5011810;28;20739;-53
2022/03/01 04:24:42;;;;;;;12.37;8.43;;;;;;;0.16;66.34;103053.09;5004188;28;20237;-55
2022/03/01 04:27:08;;;;;;;10.53;8.00;;;;;;;-0.07;66.06;103047.03;5006435;28;20263;-55
2022/03/01 04:29:35;;;;;;;9.27;7.33;;;;;;;-0.04;68.27;103039.50;5018083;28;20275;-55
2022/03/01 04:32:01;;;;;;;11.17;7.40;;;;;;;-0.17;69.45;103041.94;5020204;28;20248;-57
2022/03/01 04:34:28;;;;;;;11.23;7.57;;;;;;;-0.32;66.09;103045.84;5006433;28;20248;-55
2022/03/01 04:36:54;;;;;;;10.40;7.57;;;;;;;-0.18;68.68;103041.78;5014403;28;20278;-54
2022/03/01 04:39:22;;;;;;;11.03;7.33;;;;;;;-0.28;68.36;103037.56;5015289;28;20265;-54
2022/03/01 04:41:49;;;;;;;12.43;8.30;;;;;;;-0.28;68.48;103029.81;5016953;28;20228;-55
2022/03/01 04:44:15;;;;;;;11.60;8.43;;;;;;;-0.30;70.33;103024.53;5019377;28;20239;-55
2022/03/01 04:46:42;;;;;;;12.17;8.03;;;;;;;0.02;71.27;103035.63;5005154;28;20233;-54
2022/03/01 04:49:08;;;;;;;10.97;7.30;;;;;;;0.15;67.84;103030.66;5000510;28;20260;-56
2022/03/01 04:51:35;;;;;;;12.47;7.87;;;;;;;-0.02;65.23;103042.22;4998621;28;20737;-55
2022/03/01 04:54:01;;;;;;;11.07;7.67;;;;;;;-0.02;64.17;103029.31;5000804;28;20239;-54
2022/03/01 04:56:29;;;;;;;12.93;7.27;;;;;;;-0.09;66.94;103035.69;5001082;28;20767;-54
2022/03/01 04:58:55;;;;;;;11.47;7.83;;;;;;;-0.09;67.11;103037.38;5017608;28;20230;-55
2022/03/01 05:01:21;;;;;;;12.97;7.77;;;;;;;-0.16;69.11;103027.34;5005346;28;20282;-54
2022/03/01 05:03:47;;;;;;;10.47;7.80;;;;;;;0.04;66.50;103028.91;5012640;28;20256;-54
2022/03/01 05:06:14;;;;;;;9.37;7.30;;;;;;;-0.01;68.11;103029.44;5021603;28;20254;-53
2022/03/01 05:08:40;;;;;;;10.53;7.80;;;;;;;-0.23;64.56;103036.25;5012053;28;20782;-55
2022/03/01 05:11:06;;;;;;;13.00;8.13;;;;;;;-0.41;63.81;103029.63;4991826;28;20301;-53
2022/03/01 05:13:35;;;;;;;10.87;8.33;;;;;;;-0.26;66.89;103029.16;5015741;28;20246;-53
2022/03/01 05:16:01;;;;;;;13.07;8.17;;;;;;;-0.41;64.69;103034.81;5005524;28;20613;-54
2022/03/01 05:18:27;;;;;;;13.20;8.37;;;;;;;-0.28;66.04;103037.56;5002183;28;20284;-53
2022/03/01 05:20:54;;;;;;;10.57;7.57;;;;;;;-0.41;66.77;103040.84;4994830;28;20262;-52
2022/03/01 05:23:20;;;;;;;11.60;8.60;;;;;;;-0.46;65.10;103036.09;5015522;28;21760;-55
2022/03/01 05:25:46;;;;;;;14.27;7.80;;;;;;;-0.46;66.46;103039.56;5009909;28;20658;-54
2022/03/01 05:28:13;;;;;;;13.90;8.73;;;;;;;-0.54;67.14;103038.06;5005104;28;20301;-54
2022/03/01 05:30:41;;;;;;;11.47;6.80;;;;;;;-0.42;65.95;103039.06;5006001;28;20240;-53
2022/03/01 05:33:08;;;;;;;11.67;7.40;;;;;;;-0.56;65.07;103040.53;5020336;28;20588;-54
2022/03/01 05:35:34;;;;;;;13.10;7.83;;;;;;;-0.41;66.62;103042.53;5019852;28;20763;-54
2022/03/01 05:38:02;;;;;;;9.87;7.37;;;;;;;-0.38;68.01;103035.06;5020482;28;20232;-55
2022/03/01 05:40:30;;;;;;;12.33;8.03;;;;;;;-0.37;65.41;103045.47;4994052;28;20241;-54
2022/03/01 05:42:57;;;;;;;13.07;7.57;;;;;;;-0.46;65.20;103052.47;5002402;28;20231;-53
2022/03/01 05:45:25;;;;;;;12.10;7.93;;;;;;;-0.64;66.23;103048.41;5016411;28;20658;-54
2022/03/01 05:47:53;;;;;;;14.40;8.27;;;;;;;-0.51;67.99;103048.63;5021364;28;20239;-55
2022/03/01 05:50:20;;;;;;;11.90;8.10;;;;;;;-0.74;66.61;103046.75;5013741;28;20262;-55
2022/03/01 05:52:47;;;;;;;11.13;7.90;;;;;;;-0.73;66.77;103051.16;5014650;28;20344;-55
2022/03/01 05:55:14;;;;;;;13.40;7.67;;;;;;;-0.70;67.28;103051.41;5012855;28;20261;-55
2022/03/01 05:57:40;;;;;;;10.87;8.23;;;;;;;-0.62;68.75;103045.19;5014653;28;20716;-56
2022/03/01 06:00:10;;;;;;;11.63;8.17;;;;;;;-0.77;66.90;103049.09;5018649;28;20258;-55
2022/03/01 06:02:36;;;;;;;9.33;7.50;;;;;;;-0.72;66.65;103052.94;5003086;28;20242;-55
2022/03/01 06:05:05;;;;;;;13.93;9.40;;;;;;;-0.62;66.14;103055.50;5016417;28;20227;-56
2022/03/01 06:07:31;;;;;;;11.97;8.27;;;;;;;-0.43;67.67;103046.66;5017431;28;20259;-56
2022/03/01 06:09:58;;;;;;;11.37;8.40;;;;;;;-0.57;66.41;103051.59;5004457;28;20266;-54
2022/03/01 06:12:24;;;;;;;10.53;7.20;;;;;;;-0.51;66.52;103059.84;5002125;28;20292;-54
2022/03/01 06:14:50;;;;;;;9.17;7.20;;;;;;;-0.51;66.21;103061.53;5008021;28;20321;-54
2022/03/01 06:17:17;;;;;;;11.63;7.67;;;;;;;-0.48;65.41;103056.63;5020038;28;20236;-55
2022/03/01 06:19:43;;;;;;;10.60;7.17;;;;;;;-0.49;65.88;103058.31;5013330;28;20293;-54
2022/03/01 06:22:11;;;;;;;10.57;8.13;;;;;;;-0.13;71.63;103048.22;5016656;28;20243;-55
2022/03/01 06:24:41;;;;;;;12.27;8.03;;;;;;;-0.51;65.01;103054.69;5010485;28;20232;-53
2022/03/01 06:27:07;;;;;;;12.80;9.03;;;;;;;-0.66;65.59;103050.88;5020022;28;20240;-55
2022/03/01 06:29:35;;;;;;;12.50;8.67;;;;;;;-0.62;66.11;103063.25;4996144;28;20271;-52
2022/03/01 06:32:01;;;;;;;9.60;7.90;;;;;;;-0.61;66.90;103059.88;5003991;28;20260;-54
2022/03/01 06:34:28;;;;;;;15.33;8.80;;;;;;;-0.91;66.03;103059.91;5015527;28;20262;-53
2022/03/01 06:36:54;;;;;;;12.27;8.20;;;;;;;-0.62;68.56;103055.50;5010339;28;20231;-53
2022/03/01 06:39:22;;;;;;;11.13;7.80;;;;;;;-0.53;66.20;103051.09;5007910;28;20225;-54
2022/03/01 06:41:50;;;;;;;10.43;7.90;;;;;;;-0.57;66.52;103053.28;5023665;28;20241;-52
2022/03/01 06:44:17;;;;;;;14.97;7.30;;;;;;;-0.67;65.51;103046.47;5017553;28;20231;-53
2022/03/01 06:46:43;;;;;;;12.67;8.83;;;;;;;-0.70;65.30;103047.91;5013729;28;20251;-53
2022/03/01 06:49:09;;;;;;;16.03;8.10;;;;;;;-0.74;67.81;103050.25;5015598;28;20275;-55
2022/03/01 06:51:36;;;;;;;12.40;7.20;;;;;;;-0.34;70.55;103047.41;5006304;28;20307;-53
2022/03/01 06:54:02;;;;;;;12.67;7.57;;;;;;;-0.34;68.67;103047.41;5006831;28;20752;-52
2022/03/01 06:56:30;;;;;;;12.83;8.03;;;;;;;-0.46;65.31;103049.00;5008190;28;20224;-52
2022/03/01 06:58:58;;;;;;;10.33;7.70;;;;;;;-0.21;64.91;103042.47;5026047;28;20294;-51
2022/03/01 07:01:24;;;;;;;11.90;7.77;;;;;;;-0.34;65.24;103050.00;5018946;28;20239;-55
2022/03/01 07:03:51;;;;;;;11.17;7.67;;;;;;;-0.24;65.16;103039.63;5009912;28;20263;-52
2022/03/01 07:06:17;;;;;;;13.83;8.07;;;;;;;-0.30;64.29;103046.88;5006178;28;20244;-55
2022/03/01 07:08:44;;;;;;;14.37;8.70;;;;;;;-0.35;63.47;103051.69;5025136;28;20229;-53
2022/03/01 07:11:10;;;;;;;13.50;9.50;;;;;;;-0.42;65.58;103053.63;5014080;28;21240;-53
2022/03/01 07:13:38;;;;;;;11.40;7.60;;;;;;;-0.21;65.82;103057.97;5023771;28;20243;-51
2022/03/01 07:16:05;;;;;;;11.43;8.07;;;;;;;0.06;65.93;103053.16;5009499;28;20234;-51
2022/03/01 07:18:31;;;;;;;9.27;7.57;;;;;;;0.07;62.52;103052.38;5020560;28;20293;-55
2022/03/01 07:20:58;;;;;;;10.23;7.60;;;;;;;-0.18;62.98;103052.09;4997192;28;20258;-54
2022/03/01 07:23:24;;;;;;;9.30;7.50;;;;;;;-0.12;64.17;103056.09;5007714;28;20243;-51
2022/03/01 07:25:51;;;;;;;9.47;7.53;;;;;;;0.13;63.36;103053.75;5007076;28;20668;-51
2022/03/01 07:28:17;;;;;;;13.73;7.40;;;;;;;0.35;63.57;103058.00;5008484;28;20236;-54
2022/03/01 07:30:45;;;;;;;12.23;7.73;;;;;;;0.33;64.41;103050.16;5009453;28;20264;-54
2022/03/01 07:33:11;;;;;;;13.67;8.00;;;;;;;0.15;61.90;103046.16;5018945;28;20239;-52
2022/03/01 07:35:38;;;;;;;11.57;7.80;;;;;;;0.30;62.34;103051.59;5008087;28;20876;-54
2022/03/01 07:38:04;;;;;;;9.33;8.30;;;;;;;0.28;61.66;103055.72;5015696;28;20275;-52
2022/03/01 07:40:30;;;;;;;14.27;8.70;;;;;;;0.23;62.06;103055.38;5019718;28;20390;-54
2022/03/01 07:42:57;;;;;;;12.50;8.30;;;;;;;0.50;61.11;103055.75;5005590;28;20262;-55
2022/03/01 07:45:23;;;;;;;12.53;9.13;;;;;;;0.63;60.38;103054.22;5000326;28;20274;-55
2022/03/01 07:47:51;;;;;;;11.07;8.53;;;;;;;0.80;60.53;103042.56;5010177;28;20239;-55
2022/03/01 07:50:18;;;;;;;9.87;7.07;;;;;;;0.91;62.68;103041.72;5001779;28;20246;-56
2022/03/01 07:52:44;;;;;;;10.53;7.63;;;;;;;1.05;58.80;103039.22;5002347;28;20260;-55
2022/03/01 07:55:11;;;;;;;10.67;7.60;;;;;;;1.10;59.19;103043.06;5018103;28;20239;-53
2022/03/01 07:57:37;;;;;;;13.00;8.43;;;;;;;0.96;57.74;103034.28;5022489;28;20705;-54
2022/03/01 08:00:05;;;;;;;14.03;8.70;;;;;;;0.94;59.41;103031.56;5023539;28;20264;-53
2022/03/01 08:02:31;;;;;;;11.90;7.63;;;;;;;1.02;59.31;103028.66;5025330;28;20238;-55
2022/03/01 08:05:01;;;;;;;13.60;8.53;;;;;;;1.26;59.32;103033.06;5017743;28;20260;-53
2022/03/01 08:07:28;;;;;;;11.30;7.70;;;;;;;1.29;57.74;103035.88;5010931;28;20346;-54
2022/03/01 08:09:55;;;;;;;10.60;8.00;;;;;;;1.34;57.86;103029.34;5018265;28;20256;-57
2022/03/01 08:12:21;;;;;;;14.07;8.07;;;;;;;1.25;58.17;103038.13;5007107;28;20270;-56
2022/03/01 08:14:47;;;;;;;12.30;7.83;;;;;;;1.32;56.23;103035.19;5017570;28;20228;-54
2022/03/01 08:17:13;;;;;;;10.67;7.70;;;;;;;1.35;55.53;103031.16;5007988;28;20239;-54
2022/03/01 08:19:40;;;;;;;9.37;7.27;;;;;;;1.31;55.52;103034.31;5010435;28;20247;-54
2022/03/01 08:22:07;;;;;;;8.93;7.83;;;;;;;1.41;55.97;103036.78;5008702;28;20661;-54
2022/03/01 08:24:34;;;;;;;10.37;7.50;;;;;;;1.52;54.73;103039.25;5012205;28;20244;-55
2022/03/01 08:27:00;;;;;;;10.67;7.40;;;;;;;1.59;55.32;103032.03;5006350;28;20725;-55
2022/03/01 08:29:28;;;;;;;10.07;7.27;;;;;;;1.61;54.74;103034.72;5012048;28;20731;-54
2022/03/01 08:31:54;;;;;;;9.30;6.80;;;;;;;1.77;54.34;103032.47;5005308;28;20244;-54
2022/03/01 08:34:21;;;;;;;12.67;7.07;;;;;;;2.02;54.19;103031.63;5003481;28;20431;-55
2022/03/01 08:36:47;;;;;;;11.30;7.40;;;;;;;2.15;53.19;103023.94;5006806;28;20227;-54
2022/03/01 08:39:15;;;;;;;9.33;7.07;;;;;;;2.08;52.04;103029.47;5018687;28;20236;-57
2022/03/01 08:41:41;;;;;;;8.87;7.10;;;;;;;2.48;56.30;103020.16;5000398;28;20236;-55
2022/03/01 08:44:08;;;;;;;7.87;6.93;;;;;;;2.38;52.14;103021.22;5018594;28;20317;-55
2022/03/01 08:46:35;;;;;;;10.47;7.73;;;;;;;2.53;51.65;103026.59;5017212;28;20298;-54
2022/03/01 08:49:01;;;;;;;11.13;7.17;;;;;;;2.56;52.66;103025.88;5018353;28;20239;-54
2022/03/01 08:51:27;;;;;;;11.80;7.70;;;;;;;2.54;51.56;103022.28;5019907;28;20243;-53
2022/03/01 08:53:55;;;;;;;13.20;7.97;;;;;;;2.50;51.63;103015.09;5011802;28;20237;-54
2022/03/01 08:56:22;;;;;;;10.43;7.50;;;;;;;2.53;51.18;102999.75;5024469;28;20301;-55
2022/03/01 08:58:49;;;;;;;11.87;7.37;;;;;;;2.71;51.55;102995.81;5017772;28;20232;-54
2022/03/01 09:01:15;;;;;;;13.27;6.87;;;;;;;2.86;51.44;103012.38;5007506;28;20291;-54
2022/03/01 09:03:42;;;;;;;15.33;7.20;;;;;;;3.00;49.90;103009.81;5012750;28;20314;-55
2022/03/01 09:06:09;;;;;;;9.07;6.73;;;;;;;3.07;49.70;103004.25;5017327;28;20798;-53
2022/03/01 09:08:37;;;;;;;10.83;7.33;;;;;;;3.20;49.21;103014.63;5015046;28;20251;-54
2022/03/01 09:11:03;;;;;;;9.73;8.13;;;;;;;3.25;48.12;103008.03;5008995;28;20683;-53
2022/03/01 09:13:32;;;;;;;9.57;6.77;;;;;;;3.18;48.80;102999.75;5013273;28;20243;-55
2022/03/01 09:15:58;;;;;;;9.80;6.77;;;;;;;3.30;49.43;102991.09;5001620;28;20224;-55
2022/03/01 09:18:24;;;;;;;9.23;6.70;;;;;;;3.59;50.27;102994.66;4992037;28;20720;-56
2022/03/01 09:20:51;;;;;;;12.63;8.07;;;;;;;3.87;47.42;102993.81;5013713;28;20236;-54
2022/03/01 09:23:18;;;;;;;9.20;7.17;;;;;;;3.99;47.38;102989.34;5008800;28;20780;-54
2022/03/01 09:25:44;;;;;;;10.80;7.20;;;;;;;4.21;47.67;102986.34;5008528;28;20647;-54
2022/03/01 09:28:11;;;;;;;8.23;6.57;;;;;;;4.25;45.26;102986.66;5018167;28;20241;-55
2022/03/01 09:30:38;;;;;;;12.63;7.50;;;;;;;4.30;46.61;102976.53;5015100;28;20260;-55
2022/03/01 09:33:05;;;;;;;10.20;7.37;;;;;;;4.57;46.05;102972.09;5014943;28;20245;-54
2022/03/01 09:35:31;;;;;;;8.07;6.70;;;;;;;4.59;45.36;102975.66;5009823;28;20240;-54
2022/03/01 09:37:57;;;;;;;11.40;7.77;;;;;;;4.70;44.92;102972.03;5016431;28;20259;-53
2022/03/01 09:40:24;;;;;;;9.97;7.00;;;;;;;4.75;44.56;102969.69;5007639;28;20314;-53
2022/03/01 09:42:51;;;;;;;9.90;7.27;;;;;;;4.87;44.02;102965.19;5014372;28;20266;-53
2022/03/01 09:45:18;;;;;;;11.13;6.90;;;;;;;4.88;43.95;102960.88;5015614;28;20225;-54
2022/03/01 09:47:45;;;;;;;8.23;6.57;;;;;;;4.97;44.89;102951.00;5002963;28;20237;-53
2022/03/01 09:50:13;;;;;;;9.43;7.10;;;;;;;4.99;44.35;102955.50;5005100;28;20256;-55
2022/03/01 09:52:40;;;;;;;10.33;7.30;;;;;;;5.23;43.99;102956.00;5017419;28;20270;-54
2022/03/01 09:55:09;;;;;;;10.27;7.43;;;;;;;5.16;42.02;102953.84;5017170;28;20279;-56
2022/03/01 09:57:35;;;;;;;8.67;6.73;;;;;;;5.05;42.45;102949.72;5009642;28;20659;-54
2022/03/01 10:00:01;;;;;;;9.17;6.73;;;;;;;4.94;41.59;102945.59;5004868;28;20314;-53
2022/03/01 10:02:34;;;;;;;8.40;7.47;;;;;;;4.85;41.91;102947.69;4990463;28;20234;-53
2022/03/01 10:05:03;;;;;;;10.33;6.57;;;;;;;4.77;41.84;102936.81;5011351;28;20249;-54
2022/03/01 10:07:30;;;;;;;10.23;6.60;;;;;;;4.75;42.39;102933.25;5008670;28;20620;-53
2022/03/01 10:10:04;;;;;;;10.70;6.87;;;;;;;4.64;41.93;102927.44;5025299;28;20228;-54
2022/03/01 10:12:30;;;;;;;9.47;6.67;;;;;;;4.80;43.50;102918.78;5015366;28;20315;-56
2022/03/01 10:14:59;;;;;;;10.90;7.07;;;;;;;4.77;42.45;102921.22;5005169;28;20286;-58
2022/03/01 10:17:34;;;;;;;9.60;7.00;;;;;;;4.67;42.48;102919.81;5005309;28;20228;-56
2022/03/01 10:20:06;;;;;;;9.67;6.73;;;;;;;4.65;43.50;102916.19;5004756;28;20348;-56
2022/03/01 10:22:33;;;;;;;9.47;7.13;;;;;;;4.92;43.90;102916.00;5008290;28;20237;-55
2022/03/01 10:25:04;;;;;;;9.30;6.57;;;;;;;4.85;42.43;102914.75;5011953;28;20327;-55
2022/03/01 10:27:31;;;;;;;8.63;5.87;;;;;;;5.00;45.24;102904.31;5010120;28;20245;-55
2022/03/01 10:29:57;;;;;;;9.07;6.23;;;;;;;4.79;42.77;102904.88;5003557;28;20249;-55
2022/03/01 10:32:24;;;;;;;9.10;6.10;;;;;;;5.17;41.65;102908.78;4996164;28;20246;-57
2022/03/01 10:35:00;;;;;;;7.23;6.13;;;;;;;5.17;42.63;102907.88;5002828;28;20241;-54
2022/03/01 10:37:29;;;;;;;8.37;6.80;;;;;;;5.10;41.87;102906.63;5014471;28;20604;-53
2022/03/01 10:40:10;;;;;;;8.50;5.80;;;;;;;5.18;42.78;102900.13;5013962;28;20229;-54
2022/03/01 10:42:36;;;;;;;7.53;5.77;;;;;;;5.41;41.79;102893.59;4994476;28;20328;-54
2022/03/01 10:45:05;;;;;;;7.10;6.20;;;;;;;5.42;40.45;102897.09;4999948;28;20818;-55
2022/03/01 10:47:33;;;;;;;8.70;6.50;;;;;;;5.42;41.94;102878.88;5000043;28;20322;-55
2022/03/01 10:50:01;;;;;;;8.80;6.13;;;;;;;5.47;41.98;102883.50;5010125;28;20248;-55
2022/03/01 10:52:33;;;;;;;9.13;6.00;;;;;;;5.66;42.53;102880.19;5011056;28;20383;-54
2022/03/01 10:55:00;;;;;;;7.47;5.63;;;;;;;5.79;41.53;102878.22;5025226;28;20236;-54
2022/03/01 10:57:27;;;;;;;7.80;6.10;;;;;;;5.74;39.34;102868.47;5012172;28;20233;-54
2022/03/01 10:59:53;;;;;;;7.70;5.57;;;;;;;5.94;41.72;102876.47;5000409;28;20240;-54
2022/03/01 11:02:20;;;;;;;6.07;5.47;;;;;;;6.11;40.63;102865.22;5013745;28;20241;-52
2022/03/01 11:04:47;;;;;;;7.57;6.37;;;;;;;6.06;38.83;102871.88;5019183;28;20229;-55
2022/03/01 11:07:14;;;;;;;7.77;6.57;;;;;;;6.06;39.71;102871.00;5004383;28;20262;-54
2022/03/01 11:09:44;;;;;;;7.20;5.37;;;;;;;5.98;39.05;102874.09;5010075;28;20263;-57
2022/03/01 11:12:11;;;;;;;7.40;6.23;;;;;;;5.94;38.22;102861.72;5027360;28;20264;-55
2022/03/01 11:14:45;;;;;;;9.00;6.07;;;;;;;5.97;39.46;102861.00;5001899;28;20714;-55
2022/03/01 11:17:16;;;;;;;8.37;5.97;;;;;;;5.94;40.20;102853.03;5015114;28;20237;-55
2022/03/01 11:19:53;;;;;;;5.83;5.17;;;;;;;6.21;38.97;102848.31;5007384;28;20257;-55
2022/03/01 11:22:23;;;;;;;9.97;6.20;;;;;;;6.16;38.04;102845.47;5013615;28;20232;-54